sensor_id;sensor_type;location;lat;lon;timestamp;P1;durP1;ratioP1;P2;durP2;ratioP2
77168;SDS011;66281;45.114;20.730;2023-02-28T00:08:09;41.83;;;18.83;;
77168;SDS011;66281;45.114;20.730;2023-02-28T00:18:10;50.03;;;22.30;;
77168;SDS011;66281;45.114;20.730;2023-02-28T00:28:10;32.00;;;15.02;;
77168;SDS011;66281;45.114;20.730;2023-02-28T00:38:11;23.75;;;12.60;;
77168;SDS011;66281;45.114;20.730;2023-02-28T00:48:13;24.43;;;11.53;;
77168;SDS011;66281;45.114;20.730;2023-02-28T00:58:13;19.42;;;10.70;;
77168;SDS011;66281;45.114;20.730;2023-02-28T01:08:14;22.20;;;11.10;;
77168;SDS011;66281;45.114;20.730;2023-02-28T01:18:14;19.40;;;10.23;;
77168;SDS011;66281;45.114;20.730;2023-02-28T01:28:15;19.08;;;9.38;;
77168;SDS011;66281;45.114;20.730;2023-02-28T01:38:15;19.88;;;9.52;;
77168;SDS011;66281;45.114;20.730;2023-02-28T01:48:16;19.57;;;9.67;;
77168;SDS011;66281;45.114;20.730;2023-02-28T01:58:17;28.53;;;10.87;;
77168;SDS011;66281;45.114;20.730;2023-02-28T02:08:19;20.30;;;10.77;;
77168;SDS011;66281;45.114;20.730;2023-02-28T02:18:38;18.33;;;8.50;;
77168;SDS011;66281;45.114;20.730;2023-02-28T02:49:24;19.53;;;9.77;;
77168;SDS011;66281;45.114;20.730;2023-02-28T02:59:29;21.77;;;10.20;;
77168;SDS011;66281;45.114;20.730;2023-02-28T03:09:32;49.73;;;20.00;;
77168;SDS011;66281;45.114;20.730;2023-02-28T03:29:42;47.77;;;18.33;;
77168;SDS011;66281;45.114;20.730;2023-02-28T03:39:57;23.77;;;13.20;;
77168;SDS011;66281;45.114;20.730;2023-02-28T03:50:10;24.88;;;12.60;;
77168;SDS011;66281;45.114;20.730;2023-02-28T04:00:17;23.07;;;12.07;;
77168;SDS011;66281;45.114;20.730;2023-02-28T04:10:20;26.53;;;12.13;;
77168;SDS011;66281;45.114;20.730;2023-02-28T04:20:21;23.25;;;12.70;;
77168;SDS011;66281;45.114;20.730;2023-02-28T04:30:21;27.73;;;13.65;;
77168;SDS011;66281;45.114;20.730;2023-02-28T04:40:22;25.70;;;12.88;;
77168;SDS011;66281;45.114;20.730;2023-02-28T04:50:22;23.80;;;14.15;;
77168;SDS011;66281;45.114;20.730;2023-02-28T05:00:23;31.20;;;14.07;;
77168;SDS011;66281;45.114;20.730;2023-02-28T05:10:23;37.80;;;17.63;;
77168;SDS011;66281;45.114;20.730;2023-02-28T05:20:24;39.33;;;21.02;;
77168;SDS011;66281;45.114;20.730;2023-02-28T05:30:24;43.67;;;20.03;;
77168;SDS011;66281;45.114;20.730;2023-02-28T05:40:25;36.70;;;19.40;;
77168;SDS011;66281;45.114;20.730;2023-02-28T05:50:25;45.50;;;21.42;;
77168;SDS011;66281;45.114;20.730;2023-02-28T06:00:26;37.33;;;18.65;;
77168;SDS011;66281;45.114;20.730;2023-02-28T06:10:26;41.95;;;20.30;;
77168;SDS011;66281;45.114;20.730;2023-02-28T06:20:27;50.45;;;22.88;;
77168;SDS011;66281;45.114;20.730;2023-02-28T06:30:28;53.93;;;23.17;;
77168;SDS011;66281;45.114;20.730;2023-02-28T06:40:28;100.10;;;39.90;;
77168;SDS011;66281;45.114;20.730;2023-02-28T06:50:29;97.18;;;40.40;;
77168;SDS011;66281;45.114;20.730;2023-02-28T07:00:29;66.97;;;28.93;;
77168;SDS011;66281;45.114;20.730;2023-02-28T07:10:30;73.03;;;30.67;;
77168;SDS011;66281;45.114;20.730;2023-02-28T07:20:31;65.40;;;27.95;;
77168;SDS011;66281;45.114;20.730;2023-02-28T07:30:31;66.03;;;29.27;;
77168;SDS011;66281;45.114;20.730;2023-02-28T07:40:31;61.00;;;28.13;;
77168;SDS011;66281;45.114;20.730;2023-02-28T07:50:32;63.95;;;27.33;;
77168;SDS011;66281;45.114;20.730;2023-02-28T08:00:32;63.55;;;26.77;;
77168;SDS011;66281;45.114;20.730;2023-02-28T08:10:33;80.13;;;34.97;;
77168;SDS011;66281;45.114;20.730;2023-02-28T08:20:34;79.63;;;35.60;;
77168;SDS011;66281;45.114;20.730;2023-02-28T08:30:34;70.57;;;30.20;;
77168;SDS011;66281;45.114;20.730;2023-02-28T08:40:35;52.70;;;22.00;;
77168;SDS011;66281;45.114;20.730;2023-02-28T08:50:35;45.90;;;21.50;;
77168;SDS011;66281;45.114;20.730;2023-02-28T09:00:36;53.85;;;23.23;;
77168;SDS011;66281;45.114;20.730;2023-02-28T09:10:36;47.70;;;21.77;;
77168;SDS011;66281;45.114;20.730;2023-02-28T09:20:37;41.88;;;17.98;;
77168;SDS011;66281;45.114;20.730;2023-02-28T09:30:39;42.70;;;19.03;;
77168;SDS011;66281;45.114;20.730;2023-02-28T09:40:45;45.35;;;19.80;;
77168;SDS011;66281;45.114;20.730;2023-02-28T09:50:50;42.47;;;19.57;;
77168;SDS011;66281;45.114;20.730;2023-02-28T10:01:05;87.95;;;32.33;;
77168;SDS011;66281;45.114;20.730;2023-02-28T10:11:28;41.17;;;20.47;;
77168;SDS011;66281;45.114;20.730;2023-02-28T10:21:31;46.00;;;20.53;;
77168;SDS011;66281;45.114;20.730;2023-02-28T10:31:38;49.78;;;21.08;;
77168;SDS011;66281;45.114;20.730;2023-02-28T10:41:41;68.70;;;27.00;;
77168;SDS011;66281;45.114;20.730;2023-02-28T10:51:42;117.57;;;37.27;;
77168;SDS011;66281;45.114;20.730;2023-02-28T11:01:44;57.23;;;23.43;;
77168;SDS011;66281;45.114;20.730;2023-02-28T11:11:45;46.60;;;21.50;;
77168;SDS011;66281;45.114;20.730;2023-02-28T11:21:49;51.72;;;22.52;;
77168;SDS011;66281;45.114;20.730;2023-02-28T11:32:07;57.50;;;26.00;;
77168;SDS011;66281;45.114;20.730;2023-02-28T12:33:26;71.80;;;31.53;;
77168;SDS011;66281;45.114;20.730;2023-02-28T12:43:33;54.47;;;25.33;;
77168;SDS011;66281;45.114;20.730;2023-02-28T13:14:40;200.27;;;70.13;;
77168;SDS011;66281;45.114;20.730;2023-02-28T13:24:42;140.43;;;53.38;;
77168;SDS011;66281;45.114;20.730;2023-02-28T14:05:44;63.87;;;30.60;;
77168;SDS011;66281;45.114;20.730;2023-02-28T14:15:46;148.13;;;52.53;;
77168;SDS011;66281;45.114;20.730;2023-02-28T14:25:58;77.37;;;35.03;;
77168;SDS011;66281;45.114;20.730;2023-02-28T14:36:21;176.50;;;56.58;;
77168;SDS011;66281;45.114;20.730;2023-02-28T14:46:35;110.17;;;42.97;;
77168;SDS011;66281;45.114;20.730;2023-02-28T14:56:37;101.53;;;40.77;;
77168;SDS011;66281;45.114;20.730;2023-02-28T15:06:38;111.28;;;50.38;;
77168;SDS011;66281;45.114;20.730;2023-02-28T15:16:39;74.67;;;36.57;;
77168;SDS011;66281;45.114;20.730;2023-02-28T15:26:43;51.20;;;26.17;;
77168;SDS011;66281;45.114;20.730;2023-02-28T15:36:46;34.07;;;17.60;;
77168;SDS011;66281;45.114;20.730;2023-02-28T15:46:54;82.53;;;38.93;;
77168;SDS011;66281;45.114;20.730;2023-02-28T15:57:25;89.47;;;39.53;;
77168;SDS011;66281;45.114;20.730;2023-02-28T16:07:26;119.73;;;52.87;;
77168;SDS011;66281;45.114;20.730;2023-02-28T16:17:30;103.33;;;45.23;;
77168;SDS011;66281;45.114;20.730;2023-02-28T16:27:35;191.07;;;73.30;;
77168;SDS011;66281;45.114;20.730;2023-02-28T16:37:36;165.40;;;60.83;;
77168;SDS011;66281;45.114;20.730;2023-02-28T16:47:37;81.27;;;39.03;;
77168;SDS011;66281;45.114;20.730;2023-02-28T16:57:38;94.85;;;42.47;;
77168;SDS011;66281;45.114;20.730;2023-02-28T17:07:39;89.90;;;40.60;;
77168;SDS011;66281;45.114;20.730;2023-02-28T17:17:40;84.23;;;35.90;;
77168;SDS011;66281;45.114;20.730;2023-02-28T17:27:41;125.50;;;47.67;;
77168;SDS011;66281;45.114;20.730;2023-02-28T17:37:41;119.30;;;47.95;;
77168;SDS011;66281;45.114;20.730;2023-02-28T17:47:43;108.80;;;48.28;;
77168;SDS011;66281;45.114;20.730;2023-02-28T17:57:44;129.57;;;51.80;;
77168;SDS011;66281;45.114;20.730;2023-02-28T18:07:45;131.93;;;50.03;;
77168;SDS011;66281;45.114;20.730;2023-02-28T18:17:46;110.35;;;41.35;;
77168;SDS011;66281;45.114;20.730;2023-02-28T18:27:47;101.97;;;43.67;;
77168;SDS011;66281;45.114;20.730;2023-02-28T18:37:47;117.07;;;39.95;;
77168;SDS011;66281;45.114;20.730;2023-02-28T18:47:48;105.80;;;37.22;;
77168;SDS011;66281;45.114;20.730;2023-02-28T18:57:48;160.85;;;63.78;;
77168;SDS011;66281;45.114;20.730;2023-02-28T19:07:49;149.93;;;57.03;;
77168;SDS011;66281;45.114;20.730;2023-02-28T19:17:49;106.07;;;36.87;;
77168;SDS011;66281;45.114;20.730;2023-02-28T19:27:53;116.72;;;42.95;;
77168;SDS011;66281;45.114;20.730;2023-02-28T19:37:54;110.07;;;42.53;;
77168;SDS011;66281;45.114;20.730;2023-02-28T19:47:55;130.67;;;48.97;;
77168;SDS011;66281;45.114;20.730;2023-02-28T19:57:55;122.00;;;47.57;;
77168;SDS011;66281;45.114;20.730;2023-02-28T20:07:56;96.30;;;39.10;;
77168;SDS011;66281;45.114;20.730;2023-02-28T20:17:56;94.03;;;35.47;;
77168;SDS011;66281;45.114;20.730;2023-02-28T20:27:57;139.30;;;61.08;;
77168;SDS011;66281;45.114;20.730;2023-02-28T20:37:58;166.47;;;65.70;;
77168;SDS011;66281;45.114;20.730;2023-02-28T20:47:58;157.32;;;62.60;;
77168;SDS011;66281;45.114;20.730;2023-02-28T20:57:59;112.25;;;47.92;;
77168;SDS011;66281;45.114;20.730;2023-02-28T21:07:59;105.73;;;44.50;;
77168;SDS011;66281;45.114;20.730;2023-02-28T21:17:59;146.23;;;62.75;;
77168;SDS011;66281;45.114;20.730;2023-02-28T21:28:00;84.03;;;37.67;;
77168;SDS011;66281;45.114;20.730;2023-02-28T21:38:00;87.60;;;36.10;;
77168;SDS011;66281;45.114;20.730;2023-02-28T21:48:01;77.65;;;36.92;;
77168;SDS011;66281;45.114;20.730;2023-02-28T21:58:01;63.20;;;30.33;;
77168;SDS011;66281;45.114;20.730;2023-02-28T22:08:02;53.95;;;26.67;;
77168;SDS011;66281;45.114;20.730;2023-02-28T22:18:02;57.10;;;26.27;;
77168;SDS011;66281;45.114;20.730;2023-02-28T22:28:03;54.00;;;26.53;;
77168;SDS011;66281;45.114;20.730;2023-02-28T22:38:04;43.63;;;22.70;;
77168;SDS011;66281;45.114;20.730;2023-02-28T22:48:04;49.80;;;23.13;;
77168;SDS011;66281;45.114;20.730;2023-02-28T22:58:05;35.65;;;19.08;;
77168;SDS011;66281;45.114;20.730;2023-02-28T23:08:06;37.43;;;19.00;;
77168;SDS011;66281;45.114;20.730;2023-02-28T23:18:06;43.43;;;20.90;;
77168;SDS011;66281;45.114;20.730;2023-02-28T23:28:07;40.45;;;21.88;;
77168;SDS011;66281;45.114;20.730;2023-02-28T23:38:08;36.80;;;18.87;;
77168;SDS011;66281;45.114;20.730;2023-02-28T23:48:09;34.17;;;18.05;;
77168;SDS011;66281;45.114;20.730;2023-02-28T23:58:09;37.85;;;19.20;;
